Time;durP1;ratioP1;P1;durP2;ratioP2;P2;SDS_P1;SDS_P2;PMS_P1;PMS_P2;Temp;Humidity;BMP_temperature;BMP_pressure;BME280_temperature;BME280_humidity;BME280_pressure;Samples;Min_cycle;Max_cycle;Signal;HPM_P1;HPM_P2
2021/11/28 00:00:25;;;;;;;;;;;3.40;99.90;;;;;;5084155;28;19959;-82
2021/11/28 00:02:54;;;;;;;;;;;3.20;99.90;;;;;;5084199;28;19925;-81
2021/11/28 00:05:23;;;;;;;;;;;3.20;99.90;;;;;;5083723;28;20020;-81
2021/11/28 00:10:45;;;;;;;;;;;3.20;99.90;;;;;;5096556;28;19924;-80
2021/11/28 00:13:23;;;;;;;;;;;3.20;99.90;;;;;;5091576;28;19947;-80
2021/11/28 00:15:49;;;;;;;;;;;3.10;99.90;;;;;;5092043;28;19934;-80
2021/11/28 00:18:17;;;;;;;;;;;3.10;99.90;;;;;;5087922;28;19979;-81
2021/11/28 00:20:44;;;;;;;;;;;3.10;99.90;;;;;;5084943;28;19967;-81
2021/11/28 00:23:11;;;;;;;;;;;3.10;99.90;;;;;;5083710;28;20043;-80
2021/11/28 00:25:37;;;;;;;;;;;3.20;99.90;;;;;;5083248;28;19924;-81
2021/11/28 00:28:04;;;;;;;;;;;3.10;99.90;;;;;;5082827;28;20019;-82
2021/11/28 00:30:32;;;;;;;;;;;3.10;99.90;;;;;;5083328;28;20466;-81
2021/11/28 00:33:00;;;;;;;;;;;3.10;99.90;;;;;;5081142;28;20303;-81
2021/11/28 00:35:28;;;;;;;;;;;3.10;99.90;;;;;;5077692;28;19924;-82
2021/11/28 00:37:55;;;;;;;;;;;3.10;99.90;;;;;;5077994;28;20019;-80
2021/11/28 00:40:22;;;;;;;;;;;3.50;99.90;;;;;;5078549;28;19955;-80
2021/11/28 00:42:48;;;;;;;;;;;3.10;99.90;;;;;;5078792;28;19925;-81
2021/11/28 00:45:15;;;;;;;;;;;3.10;99.90;;;;;;5079339;28;20019;-81
2021/11/28 00:47:42;;;;;;;;;;;3.10;99.90;;;;;;5080239;28;19988;-82
2021/11/28 00:50:24;;;;;;;;;;;3.00;99.90;;;;;;5080276;28;20308;-81
2021/11/28 00:52:54;;;;;;;;;;;3.00;99.90;;;;;;5078508;28;20019;-82
2021/11/28 00:55:21;;;;;;;;;;;3.00;99.90;;;;;;5078519;28;19925;-81
2021/11/28 00:57:48;;;;;;;;;;;3.00;99.90;;;;;;5084831;28;19931;-79
2021/11/28 01:00:15;;;;;;;;;;;3.00;99.90;;;;;;5086278;28;19951;-80
2021/11/28 01:02:42;;;;;;;;;;;3.00;99.90;;;;;;5087932;28;19925;-79
2021/11/28 01:05:09;;;;;;;;;;;3.00;99.90;;;;;;5088324;28;19924;-78
2021/11/28 01:07:38;;;;;;;;;;;3.00;99.90;;;;;;5085115;28;20015;-79
2021/11/28 01:10:07;;;;;;;;;;;3.20;99.90;;;;;;5091009;28;19932;-81
2021/11/28 01:12:34;;;;;;;;;;;3.00;99.90;;;;;;5093303;28;19999;-81
2021/11/28 01:15:00;;;;;;;;;;;3.40;99.90;;;;;;5090826;28;19971;-80
2021/11/28 01:17:27;;;;;;;;;;;3.10;99.90;;;;;;5093034;28;19995;-80
2021/11/28 01:19:54;;;;;;;;;;;3.10;99.90;;;;;;5089645;28;19963;-81
2021/11/28 01:22:20;;;;;;;;;;;3.00;99.90;;;;;;5083139;28;20336;-81
2021/11/28 01:24:47;;;;;;;;;;;4.10;99.90;;;;;;5081300;28;20011;-80
2021/11/28 01:27:16;;;;;;;;;;;3.00;99.90;;;;;;5087609;28;20082;-79
2021/11/28 01:29:43;;;;;;;;;;;3.00;99.90;;;;;;5087402;28;19924;-80
2021/11/28 01:32:10;;;;;;;;;;;3.00;99.90;;;;;;5079282;28;19928;-80
2021/11/28 01:34:36;;;;;;;;;;;3.00;99.90;;;;;;5078864;28;19924;-80
2021/11/28 01:37:05;;;;;;;;;;;3.10;99.90;;;;;;5089302;28;19947;-79
2021/11/28 01:39:31;;;;;;;;;;;3.10;99.90;;;;;;5097646;28;19940;-78
2021/11/28 01:41:58;;;;;;;;;;;3.20;99.90;;;;;;5096954;28;19912;-80
2021/11/28 01:44:27;;;;;;;;;;;3.20;99.90;;;;;;5092523;28;19924;-81
2021/11/28 01:46:53;;;;;;;;;;;3.10;99.90;;;;;;5082259;28;20015;-81
2021/11/28 01:49:21;;;;;;;;;;;3.20;99.90;;;;;;5083746;28;20394;-80
2021/11/28 01:51:48;;;;;;;;;;;3.20;99.90;;;;;;5080307;28;19928;-80
2021/11/28 01:54:15;;;;;;;;;;;3.20;99.90;;;;;;5083852;28;19924;-80
2021/11/28 01:56:42;;;;;;;;;;;3.30;99.90;;;;;;5089726;28;19991;-79
2021/11/28 01:59:09;;;;;;;;;;;3.30;99.90;;;;;;5090716;28;19967;-79
2021/11/28 02:01:38;;;;;;;;;;;3.30;99.90;;;;;;5084638;28;19924;-80
2021/11/28 02:04:07;;;;;;;;;;;3.30;99.90;;;;;;5086613;28;19967;-79
2021/11/28 02:06:33;;;;;;;;;;;3.30;99.90;;;;;;5085678;28;19981;-80
2021/11/28 02:09:00;;;;;;;;;;;3.30;99.90;;;;;;5079801;28;19974;-81
2021/11/28 02:11:27;;;;;;;;;;;3.30;99.90;;;;;;5078757;28;20037;-80
2021/11/28 02:13:53;;;;;;;;;;;3.10;99.90;;;;;;5078735;28;19924;-80
2021/11/28 02:16:20;;;;;;;;;;;3.30;99.90;;;;;;5078578;28;19956;-80
2021/11/28 02:18:50;;;;;;;;;;;3.30;99.90;;;;;;5078126;28;19967;-80
2021/11/28 02:21:18;;;;;;;;;;;3.60;99.90;;;;;;5080632;28;19924;-80
2021/11/28 02:23:45;;;;;;;;;;;3.20;99.90;;;;;;5081478;28;19991;-80
2021/11/28 02:26:14;;;;;;;;;;;2.90;99.90;;;;;;5080438;28;19924;-80
2021/11/28 02:28:42;;;;;;;;;;;3.90;99.90;;;;;;5080118;28;19925;-80
2021/11/28 02:31:08;;;;;;;;;;;3.30;99.90;;;;;;5079041;28;19948;-80
2021/11/28 02:33:36;;;;;;;;;;;3.30;99.90;;;;;;5077819;28;20012;-80
2021/11/28 02:36:03;;;;;;;;;;;3.30;99.90;;;;;;5078042;28;20045;-80
2021/11/28 02:38:31;;;;;;;;;;;3.20;99.90;;;;;;5078742;28;19983;-80
2021/11/28 02:40:57;;;;;;;;;;;3.30;99.90;;;;;;5078516;28;19930;-80
2021/11/28 02:43:25;;;;;;;;;;;3.30;99.90;;;;;;5091272;28;19942;-81
2021/11/28 02:45:52;;;;;;;;;;;3.50;99.90;;;;;;5079097;28;19947;-81
2021/11/28 02:48:19;;;;;;;;;;;3.30;99.90;;;;;;5078044;28;19968;-81
2021/11/28 02:50:46;;;;;;;;;;;3.30;99.90;;;;;;5078176;28;20043;-81
2021/11/28 02:53:13;;;;;;;;;;;3.30;99.90;;;;;;5078178;28;20458;-81
2021/11/28 02:55:42;;;;;;;;;;;3.30;99.90;;;;;;5077636;28;19925;-80
2021/11/28 02:58:09;;;;;;;;;;;3.30;99.90;;;;;;5077475;28;20019;-81
2021/11/28 03:00:37;;;;;;;;;;;3.30;99.90;;;;;;5077461;28;19925;-80
2021/11/28 03:03:04;;;;;;;;;;;3.30;99.90;;;;;;5077623;28;20298;-80
2021/11/28 03:05:30;;;;;;;;;;;3.30;99.90;;;;;;5077001;28;20351;-79
2021/11/28 03:07:57;;;;;;;;;;;3.20;99.90;;;;;;5080236;28;20011;-79
2021/11/28 03:10:35;;;;;;;;;;;3.30;99.90;;;;;;5084833;28;19931;-78
2021/11/28 03:13:04;;;;;;;;;;;3.30;99.90;;;;;;5080563;28;19956;-80
2021/11/28 03:15:30;;;;;;;;;;;3.30;99.90;;;;;;5077952;28;19971;-80
2021/11/28 03:17:57;;;;;;;;;;;3.30;99.90;;;;;;5078082;28;19924;-80
2021/11/28 03:20:24;;;;;;;;;;;3.30;99.90;;;;;;5078769;28;20352;-80
2021/11/28 03:22:52;;;;;;;;;;;3.40;99.90;;;;;;5078902;28;19931;-80
2021/11/28 03:25:19;;;;;;;;;;;3.40;99.90;;;;;;5078104;28;20279;-80
2021/11/28 03:27:46;;;;;;;;;;;3.20;99.90;;;;;;5083389;28;19949;-79
2021/11/28 03:30:16;;;;;;;;;;;3.30;99.90;;;;;;5089921;28;19932;-81
2021/11/28 03:32:43;;;;;;;;;;;3.30;99.90;;;;;;5082231;28;19925;-81
2021/11/28 03:35:09;;;;;;;;;;;3.30;99.90;;;;;;5078425;28;19928;-81
2021/11/28 03:37:36;;;;;;;;;;;3.30;99.90;;;;;;5077967;28;19959;-81
2021/11/28 03:40:04;;;;;;;;;;;3.30;99.90;;;;;;5077834;28;20007;-80
2021/11/28 03:42:31;;;;;;;;;;;3.30;99.90;;;;;;5077006;28;19931;-80
2021/11/28 03:44:57;;;;;;;;;;;3.40;99.90;;;;;;5077378;28;20359;-81
2021/11/28 03:47:25;;;;;;;;;;;3.30;99.90;;;;;;5077378;28;19931;-80
2021/11/28 03:49:52;;;;;;;;;;;3.20;99.90;;;;;;5077101;28;19930;-81
2021/11/28 03:52:19;;;;;;;;;;;3.20;99.90;;;;;;5078832;28;20003;-81
2021/11/28 03:54:45;;;;;;;;;;;3.20;99.90;;;;;;5080757;28;19988;-81
2021/11/28 03:57:12;;;;;;;;;;;3.20;99.90;;;;;;5080230;28;19924;-81
2021/11/28 03:59:39;;;;;;;;;;;3.40;99.90;;;;;;5078473;28;19934;-81
2021/11/28 04:02:05;;;;;;;;;;;3.30;99.90;;;;;;5079033;28;20334;-82
2021/11/28 04:04:33;;;;;;;;;;;3.50;99.90;;;;;;5080488;28;19924;-81
2021/11/28 04:07:00;;;;;;;;;;;3.20;99.90;;;;;;5094871;28;20000;-79
2021/11/28 04:09:27;;;;;;;;;;;3.20;99.90;;;;;;5091399;28;19943;-81
2021/11/28 04:11:53;;;;;;;;;;;3.20;99.90;;;;;;5088021;28;19928;-79
2021/11/28 04:14:20;;;;;;;;;;;3.20;99.90;;;;;;5082702;28;19963;-81
2021/11/28 04:16:47;;;;;;;;;;;3.20;99.90;;;;;;5076752;28;20015;-81
2021/11/28 04:19:14;;;;;;;;;;;3.20;99.90;;;;;;5079950;28;19924;-80
2021/11/28 04:21:44;;;;;;;;;;;3.10;99.90;;;;;;5085225;28;19974;-79
2021/11/28 04:24:11;;;;;;;;;;;3.00;99.90;;;;;;5083355;28;20373;-80
2021/11/28 04:26:39;;;;;;;;;;;3.00;99.90;;;;;;5083676;28;19974;-80
2021/11/28 04:29:06;;;;;;;;;;;2.90;99.90;;;;;;5098042;28;19916;-79
2021/11/28 04:31:32;;;;;;;;;;;2.80;99.90;;;;;;5098018;28;19919;-79
2021/11/28 04:33:59;;;;;;;;;;;2.70;99.90;;;;;;5097976;28;19939;-81
2021/11/28 04:36:26;;;;;;;;;;;2.70;99.90;;;;;;5098088;28;19944;-80
2021/11/28 04:38:54;;;;;;;;;;;2.60;99.90;;;;;;5098129;28;19912;-80
2021/11/28 04:41:20;;;;;;;;;;;2.60;99.90;;;;;;5092626;28;19924;-80
2021/11/28 04:43:47;;;;;;;;;;;2.50;99.90;;;;;;5084844;28;19962;-80
2021/11/28 04:46:14;;;;;;;;;;;2.50;99.90;;;;;;5084772;28;19931;-80
2021/11/28 04:48:40;;;;;;;;;;;2.50;99.90;;;;;;5084349;28;20015;-80
2021/11/28 04:51:07;;;;;;;;;;;2.40;99.90;;;;;;5080617;28;20355;-81
2021/11/28 04:53:34;;;;;;;;;;;2.40;99.90;;;;;;5080417;28;19924;-81
2021/11/28 04:56:02;;;;;;;;;;;2.40;99.90;;;;;;5090831;28;19944;-80
2021/11/28 04:58:28;;;;;;;;;;;2.30;99.90;;;;;;5095089;28;20003;-80
2021/11/28 05:00:55;;;;;;;;;;;2.30;99.90;;;;;;5096081;28;19923;-80
2021/11/28 05:03:22;;;;;;;;;;;2.20;99.90;;;;;;5083674;28;20319;-81
2021/11/28 05:05:48;;;;;;;;;;;2.20;99.90;;;;;;5078377;28;20335;-81
2021/11/28 05:08:15;;;;;;;;;;;2.60;99.90;;;;;;5078272;28;20379;-82
2021/11/28 05:10:42;;;;;;;;;;;2.20;99.90;;;;;;5091850;28;19925;-81
2021/11/28 05:13:10;;;;;;;;;;;2.20;99.90;;;;;;5091402;28;19925;-80
2021/11/28 05:15:36;;;;;;;;;;;2.80;99.90;;;;;;5091054;28;19924;-78
2021/11/28 05:18:03;;;;;;;;;;;2.20;99.90;;;;;;5081913;28;19924;-77
2021/11/28 05:20:30;;;;;;;;;;;2.40;99.90;;;;;;5083632;28;20007;-78
2021/11/28 05:22:57;;;;;;;;;;;2.10;99.90;;;;;;5084841;28;19924;-78
2021/11/28 05:25:23;;;;;;;;;;;1.90;99.90;;;;;;5087513;28;19971;-78
2021/11/28 05:27:50;;;;;;;;;;;2.10;99.90;;;;;;5091804;28;19935;-78
2021/11/28 05:30:18;;;;;;;;;;;2.10;99.90;;;;;;5086398;28;19924;-78
2021/11/28 05:32:45;;;;;;;;;;;2.00;99.90;;;;;;5090348;28;19956;-78
2021/11/28 05:35:12;;;;;;;;;;;2.00;99.90;;;;;;5091107;28;19963;-78
2021/11/28 05:37:38;;;;;;;;;;;2.00;99.90;;;;;;5085898;28;20019;-80
2021/11/28 05:40:06;;;;;;;;;;;2.00;99.90;;;;;;5085861;28;19963;-78
2021/11/28 05:42:32;;;;;;;;;;;1.90;99.90;;;;;;5089691;28;19924;-80
2021/11/28 05:45:01;;;;;;;;;;;1.90;99.90;;;;;;5094917;28;19959;-80
2021/11/28 05:47:29;;;;;;;;;;;1.80;99.90;;;;;;5099961;28;19931;-80
2021/11/28 05:49:55;;;;;;;;;;;1.80;99.90;;;;;;5083562;28;19971;-79
2021/11/28 05:52:22;;;;;;;;;;;1.70;99.90;;;;;;5080288;28;19924;-80
2021/11/28 05:54:49;;;;;;;;;;;1.70;99.90;;;;;;5079653;28;19925;-80
2021/11/28 05:57:16;;;;;;;;;;;1.70;99.90;;;;;;5079199;28;19931;-80
2021/11/28 05:59:43;;;;;;;;;;;1.60;99.90;;;;;;5079822;28;20290;-80
2021/11/28 06:02:09;;;;;;;;;;;1.60;99.90;;;;;;5079431;28;20319;-80
2021/11/28 06:04:37;;;;;;;;;;;1.50;99.90;;;;;;5079398;28;19928;-80
2021/11/28 06:07:04;;;;;;;;;;;1.60;99.90;;;;;;5078424;28;19931;-80
2021/11/28 06:09:31;;;;;;;;;;;1.60;99.90;;;;;;5079999;28;19971;-80
2021/11/28 06:11:58;;;;;;;;;;;2.10;99.90;;;;;;5080570;28;20276;-80
2021/11/28 06:14:24;;;;;;;;;;;1.50;99.90;;;;;;5079929;28;20062;-80
2021/11/28 06:16:51;;;;;;;;;;;1.50;99.90;;;;;;5079238;28;20347;-80
2021/11/28 06:19:18;;;;;;;;;;;1.50;99.90;;;;;;5078675;28;19931;-80
2021/11/28 06:21:46;;;;;;;;;;;1.40;99.90;;;;;;5078350;28;19925;-80
2021/11/28 06:24:12;;;;;;;;;;;1.40;99.90;;;;;;5078540;28;19930;-81
2021/11/28 06:26:39;;;;;;;;;;;1.40;99.90;;;;;;5078302;28;20015;-80
2021/11/28 06:29:05;;;;;;;;;;;1.40;99.90;;;;;;5079726;28;20399;-80
2021/11/28 06:31:32;;;;;;;;;;;1.40;99.90;;;;;;5079892;28;19925;-80
2021/11/28 06:33:59;;;;;;;;;;;1.40;99.90;;;;;;5081283;28;19974;-80
2021/11/28 06:36:26;;;;;;;;;;;1.30;99.90;;;;;;5081430;28;20055;-79
2021/11/28 06:38:54;;;;;;;;;;;1.60;99.90;;;;;;5081479;28;20350;-80
2021/11/28 06:41:25;;;;;;;;;;;1.30;99.90;;;;;;5077930;28;19924;-80
2021/11/28 06:43:52;;;;;;;;;;;1.30;99.90;;;;;;5078148;28;19955;-80
2021/11/28 06:46:19;;;;;;;;;;;1.30;99.90;;;;;;5080269;28;19924;-82
2021/11/28 06:48:45;;;;;;;;;;;1.10;99.90;;;;;;5077146;28;19924;-80
2021/11/28 06:51:12;;;;;;;;;;;1.20;99.90;;;;;;5077419;28;19925;-80
2021/11/28 06:53:39;;;;;;;;;;;1.10;99.90;;;;;;5078447;28;20027;-79
2021/11/28 06:56:07;;;;;;;;;;;1.10;99.90;;;;;;5081906;28;20019;-79
2021/11/28 06:58:34;;;;;;;;;;;1.10;99.90;;;;;;5085456;28;19987;-78
2021/11/28 07:01:01;;;;;;;;;;;1.10;99.90;;;;;;5088519;28;19935;-80
2021/11/28 07:03:28;;;;;;;;;;;1.20;99.90;;;;;;5089861;28;19926;-79
2021/11/28 07:05:55;;;;;;;;;;;1.20;99.90;;;;;;5088952;28;19987;-79
2021/11/28 07:08:22;;;;;;;;;;;1.60;99.90;;;;;;5087756;28;19925;-80
2021/11/28 07:10:48;;;;;;;;;;;1.20;99.90;;;;;;5092802;28;20027;-80
2021/11/28 07:13:17;;;;;;;;;;;1.60;99.90;;;;;;5082085;28;19925;-80
2021/11/28 07:15:43;;;;;;;;;;;1.20;99.90;;;;;;5079054;28;20295;-80
2021/11/28 07:18:10;;;;;;;;;;;1.20;99.90;;;;;;5076810;28;20409;-80
2021/11/28 07:20:37;;;;;;;;;;;1.10;99.90;;;;;;5076436;28;20011;-80
2021/11/28 07:23:04;;;;;;;;;;;1.10;99.90;;;;;;5077085;28;19924;-81
2021/11/28 07:25:31;;;;;;;;;;;1.00;99.90;;;;;;5076712;28;19963;-80
2021/11/28 07:27:57;;;;;;;;;;;1.00;99.90;;;;;;5076396;28;19924;-81
2021/11/28 07:30:25;;;;;;;;;;;0.70;99.90;;;;;;5076790;28;20361;-81
2021/11/28 07:32:52;;;;;;;;;;;1.10;99.90;;;;;;5074854;28;20409;-80
2021/11/28 07:35:19;;;;;;;;;;;1.10;99.90;;;;;;5074899;28;20247;-80
2021/11/28 07:37:45;;;;;;;;;;;1.20;99.90;;;;;;5074831;28;19974;-80
2021/11/28 07:40:13;;;;;;;;;;;1.00;99.90;;;;;;5075066;28;20429;-81
2021/11/28 07:42:39;;;;;;;;;;;1.00;99.90;;;;;;5076065;28;20011;-80
2021/11/28 07:45:07;;;;;;;;;;;1.00;99.90;;;;;;5085140;28;19988;-80
2021/11/28 07:47:35;;;;;;;;;;;1.00;99.90;;;;;;5098951;28;19940;-78
2021/11/28 07:50:04;;;;;;;;;;;1.10;99.90;;;;;;5092749;28;19925;-81
2021/11/28 07:52:31;;;;;;;;;;;1.20;99.90;;;;;;5079237;28;20024;-81
2021/11/28 07:54:58;;;;;;;;;;;1.10;99.90;;;;;;5077997;28;19924;-81
2021/11/28 07:57:24;;;;;;;;;;;1.20;99.90;;;;;;5078831;28;19959;-81
2021/11/28 07:59:51;;;;;;;;;;;1.20;99.90;;;;;;5077521;28;20043;-81
2021/11/28 08:02:27;;;;;;;;;;;1.30;99.90;;;;;;5090701;28;19974;-80
2021/11/28 08:04:55;;;;;;;;;;;1.30;99.90;;;;;;5094322;28;19947;-80
2021/11/28 08:07:22;;;;;;;;;;;1.30;99.90;;;;;;5080725;28;19925;-80
2021/11/28 08:09:49;;;;;;;;;;;1.20;99.90;;;;;;5083808;28;19935;-79
2021/11/28 08:12:18;;;;;;;;;;;1.00;99.90;;;;;;5084958;28;19925;-79
2021/11/28 08:14:44;;;;;;;;;;;1.10;99.90;;;;;;5080762;28;19931;-79
2021/11/28 08:17:18;;;;;;;;;;;3.60;99.90;;;;;;5082081;28;20015;-81
2021/11/28 08:19:46;;;;;;;;;;;1.10;99.90;;;;;;5085553;28;19947;-78
2021/11/28 08:22:14;;;;;;;;;;;1.10;99.90;;;;;;5082477;28;19931;-79
2021/11/28 08:24:41;;;;;;;;;;;1.10;99.90;;;;;;5085966;28;19924;-81
2021/11/28 08:27:08;;;;;;;;;;;1.10;99.90;;;;;;5086080;28;19936;-79
2021/11/28 08:29:35;;;;;;;;;;;1.20;99.90;;;;;;5086719;28;19952;-80
2021/11/28 08:32:02;;;;;;;;;;;1.20;99.90;;;;;;5085675;28;19924;-81
2021/11/28 08:34:29;;;;;;;;;;;1.20;99.90;;;;;;5083458;28;19929;-81
2021/11/28 08:36:56;;;;;;;;;;;1.20;99.90;;;;;;5080416;28;19970;-81
2021/11/28 08:39:24;;;;;;;;;;;1.30;99.90;;;;;;5079528;28;19932;-80
2021/11/28 08:41:51;;;;;;;;;;;1.10;99.90;;;;;;5076327;28;19971;-80
2021/11/28 08:44:20;;;;;;;;;;;1.40;99.90;;;;;;5076162;28;19964;-80
2021/11/28 08:46:46;;;;;;;;;;;1.40;99.90;;;;;;5083775;28;19999;-79
2021/11/28 08:49:13;;;;;;;;;;;1.40;99.90;;;;;;5088821;28;19932;-79
2021/11/28 08:51:40;;;;;;;;;;;1.50;99.90;;;;;;5092313;28;19986;-82
2021/11/28 08:54:13;;;;;;;;;;;1.60;99.90;;;;;;5088587;28;20043;-82
2021/11/28 08:56:42;;;;;;;;;;;1.60;99.90;;;;;;5083279;28;19928;-79
2021/11/28 08:59:08;;;;;;;;;;;1.60;99.90;;;;;;5085611;28;19925;-82
2021/11/28 09:01:37;;;;;;;;;;;1.70;99.90;;;;;;5083939;28;19980;-80
2021/11/28 09:04:04;;;;;;;;;;;1.70;99.90;;;;;;5083832;28;19958;-81
2021/11/28 09:06:31;;;;;;;;;;;1.90;99.90;;;;;;5082755;28;19983;-81
2021/11/28 09:08:58;;;;;;;;;;;1.90;99.90;;;;;;5080603;28;20007;-81
2021/11/28 09:11:24;;;;;;;;;;;1.90;99.90;;;;;;5082403;28;19972;-81
2021/11/28 09:13:53;;;;;;;;;;;2.00;99.90;;;;;;5080818;28;19925;-81
2021/11/28 09:16:19;;;;;;;;;;;2.10;99.90;;;;;;5083012;28;20318;-80
2021/11/28 09:18:49;;;;;;;;;;;2.10;99.90;;;;;;5081650;28;19972;-80
2021/11/28 09:21:17;;;;;;;;;;;2.10;99.90;;;;;;5082474;28;19951;-80
2021/11/28 09:26:27;;;;;;;;;;;2.30;99.90;;;;;;5101174;28;19919;-79
2021/11/28 09:28:56;;;;;;;;;;;2.30;99.90;;;;;;5101003;28;19923;-79
2021/11/28 09:31:22;;;;;;;;;;;2.30;99.90;;;;;;5097723;28;19931;-80
2021/11/28 09:33:49;;;;;;;;;;;2.30;99.90;;;;;;5096902;28;19959;-80
2021/11/28 09:36:16;;;;;;;;;;;2.30;99.90;;;;;;5097151;28;19978;-80
2021/11/28 09:38:42;;;;;;;;;;;2.40;99.90;;;;;;5097211;28;19972;-79
2021/11/28 09:41:10;;;;;;;;;;;2.40;99.90;;;;;;5098322;28;19970;-80
2021/11/28 09:43:40;;;;;;;;;;;2.40;99.90;;;;;;5098610;28;19913;-79
2021/11/28 09:46:09;;;;;;;;;;;2.50;99.90;;;;;;5097503;28;19936;-79
2021/11/28 09:48:36;;;;;;;;;;;2.60;99.90;;;;;;5085829;28;20295;-81
2021/11/28 09:51:04;;;;;;;;;;;2.50;99.90;;;;;;5082678;28;19967;-81
2021/11/28 09:53:38;;;;;;;;;;;2.80;99.90;;;;;;5081550;28;19928;-81
2021/11/28 09:56:05;;;;;;;;;;;2.60;99.90;;;;;;5082852;28;20349;-81
2021/11/28 09:58:32;;;;;;;;;;;2.60;99.90;;;;;;5082167;28;19924;-81
2021/11/28 10:00:59;;;;;;;;;;;2.60;99.90;;;;;;5080662;28;19925;-80
2021/11/28 10:03:28;;;;;;;;;;;2.60;99.90;;;;;;5080845;28;20296;-81
2021/11/28 10:05:55;;;;;;;;;;;2.60;99.90;;;;;;5079545;28;20011;-78
2021/11/28 10:08:22;;;;;;;;;;;2.70;99.90;;;;;;5080050;28;20407;-80
2021/11/28 10:11:08;;;;;;;;;;;2.80;99.90;;;;;;5079389;28;19931;-81
2021/11/28 10:13:35;;;;;;;;;;;2.80;99.90;;;;;;5080278;28;20237;-82
2021/11/28 10:16:01;;;;;;;;;;;2.80;99.90;;;;;;5079894;28;19928;-80
2021/11/28 10:18:31;;;;;;;;;;;2.90;99.90;;;;;;5080150;28;20425;-80
2021/11/28 10:20:58;;;;;;;;;;;3.00;99.90;;;;;;5097551;28;19988;-81
2021/11/28 10:23:25;;;;;;;;;;;3.00;99.90;;;;;;5098166;28;19935;-81
2021/11/28 10:25:52;;;;;;;;;;;3.10;99.90;;;;;;5080573;28;19931;-80
2021/11/28 10:28:19;;;;;;;;;;;3.00;99.90;;;;;;5080948;28;19948;-81
2021/11/28 10:30:46;;;;;;;;;;;3.10;99.90;;;;;;5080955;28;20306;-82
2021/11/28 10:33:14;;;;;;;;;;;3.10;99.90;;;;;;5080343;28;19929;-81
2021/11/28 10:35:59;;;;;;;;;;;2.90;99.90;;;;;;5085815;28;19968;-79
2021/11/28 10:38:32;;;;;;;;;;;3.20;99.90;;;;;;5087556;28;19975;-82
2021/11/28 10:40:59;;;;;;;;;;;3.20;99.90;;;;;;5082996;28;19974;-82
2021/11/28 10:43:26;;;;;;;;;;;3.20;99.90;;;;;;5082747;28;19987;-82
2021/11/28 10:45:53;;;;;;;;;;;3.30;99.90;;;;;;5082551;28;20428;-81
2021/11/28 10:48:23;;;;;;;;;;;3.30;99.90;;;;;;5083265;28;20446;-82
2021/11/28 10:50:49;;;;;;;;;;;3.30;99.90;;;;;;5084409;28;20019;-80
2021/11/28 10:53:19;;;;;;;;;;;3.30;99.90;;;;;;5083750;28;20343;-80
2021/11/28 10:55:49;;;;;;;;;;;3.30;99.90;;;;;;5084167;28;20298;-81
2021/11/28 10:58:19;;;;;;;;;;;3.30;99.90;;;;;;5082550;28;19924;-81
2021/11/28 11:01:01;;;;;;;;;;;3.30;99.90;;;;;;5081739;28;19924;-81
2021/11/28 11:03:29;;;;;;;;;;;3.40;99.90;;;;;;5079955;28;20022;-80
2021/11/28 11:06:12;;;;;;;;;;;3.50;99.90;;;;;;5080197;28;19966;-82
2021/11/28 11:08:39;;;;;;;;;;;3.40;99.90;;;;;;5082625;28;20023;-81
2021/11/28 11:11:08;;;;;;;;;;;3.50;99.90;;;;;;5087144;28;19935;-79
2021/11/28 11:13:35;;;;;;;;;;;3.50;99.90;;;;;;5099167;28;19984;-78
2021/11/28 11:16:02;;;;;;;;;;;3.50;99.90;;;;;;5097977;28;19931;-80
2021/11/28 11:18:30;;;;;;;;;;;3.60;99.90;;;;;;5092731;28;19934;-82
2021/11/28 11:21:03;;;;;;;;;;;3.60;99.90;;;;;;5084713;28;19931;-81
2021/11/28 11:23:37;;;;;;;;;;;3.60;99.90;;;;;;5084333;28;19974;-81
2021/11/28 11:26:19;;;;;;;;;;;3.60;99.90;;;;;;5084142;28;19979;-82
2021/11/28 11:29:07;;;;;;;;;;;3.70;99.90;;;;;;5083727;28;19968;-84
2021/11/28 11:31:34;;;;;;;;;;;3.60;99.90;;;;;;5084150;28;19951;-82
2021/11/28 11:34:00;;;;;;;;;;;3.60;99.90;;;;;;5083921;28;19970;-82
2021/11/28 11:36:42;;;;;;;;;;;3.50;99.90;;;;;;5085512;28;19964;-82
2021/11/28 11:39:09;;;;;;;;;;;3.60;99.90;;;;;;5086044;28;19980;-83
2021/11/28 11:41:38;;;;;;;;;;;4.00;99.90;;;;;;5096140;28;19954;-82
2021/11/28 11:44:05;;;;;;;;;;;3.60;99.90;;;;;;5096427;28;19925;-83
2021/11/28 11:46:31;;;;;;;;;;;3.60;99.90;;;;;;5093397;28;19928;-82
2021/11/28 11:48:59;;;;;;;;;;;3.70;99.90;;;;;;5085053;28;20375;-82
2021/11/28 11:51:26;;;;;;;;;;;3.70;99.90;;;;;;5085119;28;19950;-82
2021/11/28 11:53:52;;;;;;;;;;;3.60;99.90;;;;;;5084528;28;19936;-83
2021/11/28 11:56:22;;;;;;;;;;;3.60;99.90;;;;;;5086650;28;19963;-83
2021/11/28 11:58:55;;;;;;;;;;;3.70;99.90;;;;;;5087045;28;19944;-82
2021/11/28 12:01:27;;;;;;;;;;;3.10;99.90;;;;;;5086697;28;19930;-82
2021/11/28 12:03:54;;;;;;;;;;;3.60;99.90;;;;;;5087647;28;19962;-82
2021/11/28 12:06:45;;;;;;;;;;;3.60;99.90;;;;;;5095467;28;19935;-81
2021/11/28 12:09:23;;;;;;;;;;;3.60;99.90;;;;;;5088781;28;19972;-82
2021/11/28 12:11:56;;;;;;;;;;;3.60;99.90;;;;;;5083018;28;20386;-81
2021/11/28 12:14:24;;;;;;;;;;;3.70;99.90;;;;;;5086019;28;19963;-82
2021/11/28 12:16:51;;;;;;;;;;;3.50;99.90;;;;;;5091723;28;19935;-79
2021/11/28 12:19:40;;;;;;;;;;;3.70;99.90;;;;;;5091790;28;19924;-82
2021/11/28 12:22:08;;;;;;;;;;;3.70;99.90;;;;;;5086169;28;19947;-82
2021/11/28 12:24:35;;;;;;;;;;;3.70;99.90;;;;;;5086673;28;19924;-82
2021/11/28 12:27:03;;;;;;;;;;;4.10;99.90;;;;;;5086259;28;20287;-82
2021/11/28 12:29:42;;;;;;;;;;;3.70;99.90;;;;;;5083560;28;19928;-82
2021/11/28 12:34:58;;;;;;;;;;;3.80;99.90;;;;;;5106244;22;20448;-83
2021/11/28 12:37:26;;;;;;;;;;;3.80;99.90;;;;;;5083184;28;19928;-82
2021/11/28 12:39:54;;;;;;;;;;;3.80;99.90;;;;;;5080566;28;19928;-81
2021/11/28 12:42:22;;;;;;;;;;;3.80;99.90;;;;;;5079750;28;20027;-81
2021/11/28 12:45:01;;;;;;;;;;;3.80;99.90;;;;;;5080976;28;20371;-83
2021/11/28 12:47:28;;;;;;;;;;;3.80;99.90;;;;;;5083130;28;19924;-83
2021/11/28 12:49:58;;;;;;;;;;;3.80;99.90;;;;;;5082952;28;19924;-83
2021/11/28 12:52:41;;;;;;;;;;;3.80;99.90;;;;;;5082692;28;19931;-83
2021/11/28 12:55:23;;;;;;;;;;;3.80;99.90;;;;;;5082300;28;20015;-83
2021/11/28 12:58:08;;;;;;;;;;;3.80;99.90;;;;;;5083741;28;19924;-81
2021/11/28 13:00:38;;;;;;;;;;;3.80;99.90;;;;;;5090489;28;20009;-84
2021/11/28 13:03:20;;;;;;;;;;;3.80;99.90;;;;;;5088695;28;19947;-81
2021/11/28 13:05:47;;;;;;;;;;;3.80;99.90;;;;;;5092225;28;19975;-80
2021/11/28 13:08:41;;;;;;;;;;;3.60;99.90;;;;;;5090979;28;19963;-81
2021/11/28 13:11:09;;;;;;;;;;;3.80;99.90;;;;;;5048649;28;19974;-81
2021/11/28 13:13:37;;;;;;;;;;;3.90;99.90;;;;;;5083959;28;19928;-83
2021/11/28 13:16:06;;;;;;;;;;;3.80;99.90;;;;;;5084360;28;19932;-82
2021/11/28 13:18:34;;;;;;;;;;;3.90;99.90;;;;;;5085138;28;19932;-83
2021/11/28 13:21:02;;;;;;;;;;;3.90;99.90;;;;;;5089885;28;19924;-83
2021/11/28 13:23:29;;;;;;;;;;;3.90;99.90;;;;;;5093577;28;19956;-83
2021/11/28 13:25:57;;;;;;;;;;;3.60;99.90;;;;;;5092818;28;19935;-82
2021/11/28 13:28:26;;;;;;;;;;;3.80;99.90;;;;;;5092457;28;19925;-79
2021/11/28 13:30:55;;;;;;;;;;;4.20;99.90;;;;;;5087890;28;19939;-84
2021/11/28 13:33:24;;;;;;;;;;;3.80;99.90;;;;;;5085777;28;19924;-82
2021/11/28 13:35:55;;;;;;;;;;;3.80;99.90;;;;;;5083504;28;19925;-83
2021/11/28 13:38:22;;;;;;;;;;;3.80;99.90;;;;;;5083150;28;19932;-82
2021/11/28 13:41:06;;;;;;;;;;;3.80;99.90;;;;;;5083588;28;20027;-82
2021/11/28 13:43:33;;;;;;;;;;;3.90;99.90;;;;;;5087469;28;19971;-83
2021/11/28 13:46:00;;;;;;;;;;;3.80;99.90;;;;;;5091499;28;19947;-83
2021/11/28 13:48:39;;;;;;;;;;;3.80;99.90;;;;;;5089512;28;19924;-83
2021/11/28 13:51:05;;;;;;;;;;;3.80;99.90;;;;;;5087592;28;19924;-84
2021/11/28 13:53:32;;;;;;;;;;;3.90;99.90;;;;;;5096893;28;19912;-83
2021/11/28 13:55:59;;;;;;;;;;;3.90;99.90;;;;;;5098191;28;19924;-83
2021/11/28 13:58:25;;;;;;;;;;;3.90;99.90;;;;;;5095872;28;20008;-79
2021/11/28 14:00:52;;;;;;;;;;;3.90;99.90;;;;;;5091052;28;19928;-83
2021/11/28 14:03:19;;;;;;;;;;;3.80;99.90;;;;;;5086894;28;19984;-81
2021/11/28 14:05:47;;;;;;;;;;;3.90;99.90;;;;;;5088434;28;19996;-83
2021/11/28 14:08:13;;;;;;;;;;;3.80;99.90;;;;;;5087781;28;20020;-83
2021/11/28 14:10:40;;;;;;;;;;;3.80;99.90;;;;;;5086688;28;20038;-83
2021/11/28 14:13:07;;;;;;;;;;;3.80;99.90;;;;;;5087136;28;19935;-82
2021/11/28 14:15:36;;;;;;;;;;;4.00;99.90;;;;;;5088339;28;19946;-83
2021/11/28 14:18:04;;;;;;;;;;;3.80;99.90;;;;;;5085742;28;19925;-83
2021/11/28 14:20:31;;;;;;;;;;;3.80;99.90;;;;;;5085406;28;19924;-82
2021/11/28 14:22:59;;;;;;;;;;;3.70;99.90;;;;;;5086001;28;19970;-84
2021/11/28 14:25:28;;;;;;;;;;;3.60;99.90;;;;;;5085758;28;19982;-83
2021/11/28 14:28:13;;;;;;;;;;;3.60;99.90;;;;;;5085116;28;20007;-83
2021/11/28 14:30:41;;;;;;;;;;;3.60;99.90;;;;;;5087183;28;19989;-83
2021/11/28 14:33:09;;;;;;;;;;;3.60;99.90;;;;;;5085699;28;19992;-83
2021/11/28 14:35:37;;;;;;;;;;;3.60;99.90;;;;;;5094080;28;19956;-84
2021/11/28 14:38:15;;;;;;;;;;;3.60;99.90;;;;;;5089760;28;19925;-83
2021/11/28 14:40:45;;;;;;;;;;;3.60;99.90;;;;;;5087471;28;19991;-83
2021/11/28 14:43:11;;;;;;;;;;;3.60;99.90;;;;;;5094667;28;19912;-80
2021/11/28 14:45:38;;;;;;;;;;;3.50;99.90;;;;;;5099222;28;19942;-80